Time;durP1;ratioP1;P1;durP2;ratioP2;P2;SDS_P1;SDS_P2;PMS_P1;PMS_P2;Temp;Humidity;BMP_temperature;BMP_pressure;BME280_temperature;BME280_humidity;BME280_pressure;Samples;Min_cycle;Max_cycle;Signal;HPM_P1;HPM_P2
2021/06/23 00:00:35;;;;;;;8.73;2.60;;;14.90;99.90;;;;;;5038143;28;20707;-63
2021/06/23 00:03:03;;;;;;;8.97;2.57;;;14.90;99.90;;;;;;5031002;28;20232;-62
2021/06/23 00:05:31;;;;;;;10.70;3.03;;;14.80;99.90;;;;;;5030554;28;20236;-63
2021/06/23 00:07:59;;;;;;;5.87;2.53;;;14.80;99.90;;;;;;5030946;28;20314;-63
2021/06/23 00:10:29;;;;;;;9.43;2.63;;;14.80;99.90;;;;;;5029995;28;20239;-63
2021/06/23 00:13:04;;;;;;;9.00;2.60;;;14.80;99.90;;;;;;5046170;28;20256;-63
2021/06/23 00:15:33;;;;;;;8.10;2.40;;;14.90;99.90;;;;;;5030510;28;20235;-62
2021/06/23 00:18:01;;;;;;;7.27;2.90;;;14.90;99.90;;;;;;5030682;28;20248;-62
2021/06/23 00:20:29;;;;;;;10.23;2.37;;;14.90;99.90;;;;;;5029715;28;20290;-63
2021/06/23 00:22:57;;;;;;;7.87;2.53;;;14.90;99.90;;;;;;5030092;28;20263;-62
2021/06/23 00:25:26;;;;;;;8.07;2.70;;;14.90;99.90;;;;;;5030265;28;20294;-63
2021/06/23 00:27:55;;;;;;;4.87;2.70;;;14.90;99.90;;;;;;5030791;28;20794;-63
2021/06/23 00:30:24;;;;;;;7.10;3.10;;;14.90;99.90;;;;;;5030069;28;20316;-63
2021/06/23 00:32:55;;;;;;;9.17;2.87;;;14.90;99.90;;;;;;5030078;28;20592;-63
2021/06/23 00:35:23;;;;;;;8.80;2.63;;;14.90;99.90;;;;;;5029694;28;20240;-63
2021/06/23 00:37:52;;;;;;;9.67;3.03;;;14.90;99.90;;;;;;5030063;28;20619;-63
2021/06/23 00:40:20;;;;;;;6.50;2.50;;;14.90;99.90;;;;;;5044695;28;20244;-59
2021/06/23 00:42:49;;;;;;;5.93;2.87;;;14.90;99.90;;;;;;5030776;28;20252;-62
2021/06/23 00:45:19;;;;;;;6.67;2.90;;;14.80;99.90;;;;;;5029714;28;20240;-63
2021/06/23 00:47:49;;;;;;;10.10;2.97;;;14.80;99.90;;;;;;5030015;28;20274;-63
2021/06/23 00:50:19;;;;;;;7.97;2.83;;;14.90;99.90;;;;;;5044552;28;20236;-63
2021/06/23 00:52:58;;;;;;;6.40;2.80;;;14.80;99.90;;;;;;5029774;28;20247;-62
2021/06/23 00:55:34;;;;;;;8.37;2.70;;;14.90;99.90;;;;;;5044487;28;20552;-62
2021/06/23 00:58:03;;;;;;;7.67;2.20;;;14.90;99.90;;;;;;5029567;28;20238;-63
2021/06/23 01:00:35;;;;;;;5.90;2.70;;;14.90;99.90;;;;;;5043691;28;20295;-63
2021/06/23 01:03:08;;;;;;;6.73;2.83;;;14.90;99.90;;;;;;5029867;28;20238;-64
2021/06/23 01:05:41;;;;;;;7.33;2.73;;;14.90;99.90;;;;;;5057317;28;20243;-62
2021/06/23 01:08:23;;;;;;;10.23;3.33;;;14.90;99.90;;;;;;5064646;28;20286;-62
2021/06/23 01:10:52;;;;;;;7.30;3.10;;;14.90;99.90;;;;;;5051339;28;20700;-63
2021/06/23 01:13:33;;;;;;;5.20;2.80;;;14.90;99.90;;;;;;5029527;28;20240;-62
2021/06/23 01:16:07;;;;;;;7.33;2.70;;;14.90;99.90;;;;;;5060330;28;20228;-63
2021/06/23 01:18:37;;;;;;;7.93;3.00;;;14.90;99.90;;;;;;5049251;28;20236;-63
2021/06/23 01:21:06;;;;;;;6.40;2.93;;;14.90;99.90;;;;;;5044633;28;20312;-62
2021/06/23 01:23:36;;;;;;;8.23;2.80;;;14.90;99.90;;;;;;5044121;28;20604;-62
2021/06/23 01:26:05;;;;;;;6.33;2.43;;;14.90;99.90;;;;;;5043499;28;20224;-63
2021/06/23 01:28:40;;;;;;;9.30;2.73;;;14.90;99.90;;;;;;5048935;28;20243;-62
2021/06/23 01:31:12;;;;;;;9.10;3.00;;;14.90;99.90;;;;;;5031131;28;20236;-63
2021/06/23 01:33:40;;;;;;;12.07;4.13;;;15.00;99.90;;;;;;5043878;28;20717;-62
2021/06/23 01:36:09;;;;;;;8.50;2.90;;;15.00;99.90;;;;;;5043992;28;20297;-63
2021/06/23 01:38:41;;;;;;;6.70;2.60;;;15.00;99.90;;;;;;5064029;28;20342;-62
2021/06/23 01:41:10;;;;;;;8.87;3.10;;;15.00;99.90;;;;;;5046459;28;20466;-63
2021/06/23 01:43:39;;;;;;;6.40;2.73;;;15.00;99.90;;;;;;5028774;28;20236;-63
2021/06/23 01:46:08;;;;;;;6.27;2.73;;;15.00;99.90;;;;;;5043744;28;20317;-63
2021/06/23 01:48:36;;;;;;;8.57;2.83;;;15.00;99.90;;;;;;5043879;28;20247;-60
2021/06/23 01:51:05;;;;;;;8.07;3.17;;;15.00;99.90;;;;;;5046241;28;20232;-62
2021/06/23 01:53:47;;;;;;;11.77;3.10;;;15.00;99.90;;;;;;5026996;28;20248;-63
2021/06/23 01:56:15;;;;;;;8.47;2.60;;;15.00;99.90;;;;;;5061119;28;20240;-63
2021/06/23 01:58:44;;;;;;;7.43;3.00;;;14.90;99.90;;;;;;5047254;28;20235;-61
2021/06/23 02:01:48;;;;;;;5.93;2.80;;;14.90;99.90;;;;;;5062836;28;20330;-62
2021/06/23 02:04:43;;;;;;;7.60;2.47;;;14.90;99.90;;;;;;5056661;28;20251;-62
2021/06/23 02:07:44;;;;;;;8.73;2.90;;;14.90;99.90;;;;;;5062409;28;20236;-62
2021/06/23 02:10:52;;;;;;;6.30;2.87;;;14.80;99.90;;;;;;5057012;28;20428;-62
2021/06/23 02:13:54;;;;;;;10.10;2.90;;;14.90;99.90;;;;;;5003003;28;20293;-63
2021/06/23 02:16:45;;;;;;;9.60;3.17;;;14.90;99.90;;;;;;5021444;28;20237;-61
2021/06/23 02:19:17;;;;;;;9.30;3.00;;;14.90;99.90;;;;;;5015077;28;20248;-60
2021/06/23 02:21:57;;;;;;;8.20;3.27;;;14.90;99.90;;;;;;5041896;28;20240;-62
2021/06/23 02:24:29;;;;;;;7.93;3.20;;;14.80;99.90;;;;;;5034577;28;20241;-63
2021/06/23 02:27:05;;;;;;;13.93;3.93;;;14.80;99.90;;;;;;5022109;28;20251;-62
2021/06/23 02:29:37;;;;;;;9.97;3.03;;;14.80;99.90;;;;;;5006776;28;20241;-63
2021/06/23 02:32:07;;;;;;;9.07;3.10;;;14.80;99.90;;;;;;5021628;28;20241;-62
2021/06/23 02:34:38;;;;;;;8.27;2.93;;;14.80;99.90;;;;;;5009551;28;20237;-61
2021/06/23 02:37:12;;;;;;;8.23;3.63;;;14.80;99.90;;;;;;5041891;28;20249;-62
2021/06/23 02:39:41;;;;;;;10.37;2.80;;;14.80;99.90;;;;;;5026283;28;26560;-62
2021/06/23 02:42:12;;;;;;;9.27;2.87;;;14.80;99.90;;;;;;5040210;28;20271;-62
2021/06/23 02:44:41;;;;;;;7.60;3.07;;;14.80;99.90;;;;;;5005630;28;20253;-63
2021/06/23 02:47:15;;;;;;;7.40;2.87;;;14.80;99.90;;;;;;5023438;28;20639;-61
2021/06/23 02:49:57;;;;;;;8.17;3.10;;;14.80;99.90;;;;;;5042784;28;20750;-62
2021/06/23 02:52:25;;;;;;;8.27;3.10;;;14.70;99.90;;;;;;5042921;28;20232;-63
2021/06/23 02:54:54;;;;;;;11.33;3.77;;;14.80;99.90;;;;;;5026077;28;20228;-63
2021/06/23 02:57:37;;;;;;;5.17;2.83;;;14.80;99.90;;;;;;5043060;28;20232;-63
2021/06/23 03:00:08;;;;;;;10.30;3.23;;;14.80;99.90;;;;;;5050882;28;20235;-63
2021/06/23 03:02:42;;;;;;;6.83;3.17;;;14.80;99.90;;;;;;5052223;28;20238;-63
2021/06/23 03:05:12;;;;;;;11.40;3.10;;;14.70;99.90;;;;;;5042878;28;20642;-62
2021/06/23 03:07:43;;;;;;;11.73;3.83;;;14.70;99.90;;;;;;5042606;28;20248;-62
2021/06/23 03:10:17;;;;;;;7.43;3.10;;;14.80;99.90;;;;;;5042145;28;20282;-62
2021/06/23 03:13:07;;;;;;;8.33;3.33;;;14.70;99.90;;;;;;5026882;28;20240;-63
2021/06/23 03:15:35;;;;;;;8.93;3.13;;;14.70;99.90;;;;;;5039156;28;20310;-63
2021/06/23 03:18:10;;;;;;;7.53;3.00;;;14.80;99.90;;;;;;5047041;28;20343;-63
2021/06/23 03:20:39;;;;;;;9.23;3.30;;;14.80;99.90;;;;;;5046346;28;20236;-62
2021/06/23 03:23:08;;;;;;;5.30;2.77;;;14.80;99.90;;;;;;5041846;28;20236;-63
2021/06/23 03:25:36;;;;;;;8.93;3.43;;;14.80;99.90;;;;;;5054116;28;20654;-62
2021/06/23 03:28:07;;;;;;;11.17;3.10;;;14.80;99.90;;;;;;5062333;28;20262;-63
2021/06/23 03:30:40;;;;;;;7.20;3.10;;;14.80;99.90;;;;;;5041088;28;20267;-63
2021/06/23 03:33:10;;;;;;;9.73;3.00;;;14.80;99.90;;;;;;5058864;28;20228;-62
2021/06/23 03:35:58;;;;;;;9.17;3.53;;;14.80;99.90;;;;;;5026066;28;20247;-63
2021/06/23 03:38:27;;;;;;;8.93;4.07;;;14.70;99.90;;;;;;5041875;28;20225;-63
2021/06/23 03:40:55;;;;;;;12.87;3.67;;;14.70;99.90;;;;;;5036408;28;20224;-62
2021/06/23 03:43:27;;;;;;;9.10;2.97;;;14.70;99.90;;;;;;5042309;28;20290;-63
2021/06/23 03:45:56;;;;;;;7.43;3.07;;;14.80;99.90;;;;;;5057059;28;20730;-63
2021/06/23 03:48:24;;;;;;;6.57;3.20;;;14.80;99.90;;;;;;5057539;28;20592;-62
2021/06/23 03:51:02;;;;;;;8.90;3.17;;;14.80;99.90;;;;;;5042182;28;20258;-62
2021/06/23 03:53:31;;;;;;;6.07;2.90;;;14.80;99.90;;;;;;5061740;28;20319;-63
2021/06/23 03:56:03;;;;;;;6.97;2.80;;;14.80;99.90;;;;;;5045711;28;20244;-62
2021/06/23 03:58:33;;;;;;;7.07;3.30;;;14.80;99.90;;;;;;5041810;28;20263;-62
2021/06/23 04:01:02;;;;;;;6.43;3.10;;;14.80;99.90;;;;;;5041430;28;20239;-63
2021/06/23 04:03:54;;;;;;;9.67;3.40;;;14.90;99.90;;;;;;5025834;28;20236;-61
2021/06/23 04:06:54;;;;;;;8.17;3.70;;;14.80;99.90;;;;;;5004762;28;20315;-63
2021/06/23 04:09:23;;;;;;;9.47;3.40;;;14.90;99.90;;;;;;5016484;28;20290;-64
2021/06/23 04:11:59;;;;;;;9.33;3.40;;;14.80;99.90;;;;;;5042099;28;20231;-63
2021/06/23 04:14:29;;;;;;;11.73;3.23;;;14.80;99.90;;;;;;5041352;28;20306;-60
2021/06/23 04:16:58;;;;;;;9.03;3.20;;;14.90;99.90;;;;;;5041918;28;20240;-62
2021/06/23 04:19:27;;;;;;;11.93;3.40;;;14.90;99.90;;;;;;5040834;28;20236;-63
2021/06/23 04:21:59;;;;;;;6.83;3.20;;;15.00;99.90;;;;;;5041501;28;20604;-63
2021/06/23 04:24:28;;;;;;;10.13;3.40;;;15.10;99.90;;;;;;5028797;28;20638;-62
2021/06/23 04:26:58;;;;;;;12.67;3.30;;;15.10;99.90;;;;;;5061386;28;20228;-63
2021/06/23 04:29:30;;;;;;;12.60;3.27;;;15.30;99.90;;;;;;5046333;28;20240;-63
2021/06/23 04:31:59;;;;;;;12.03;3.97;;;15.40;99.90;;;;;;5026812;28;20324;-62
2021/06/23 04:34:30;;;;;;;10.37;3.10;;;15.60;99.90;;;;;;5025520;28;20290;-63
2021/06/23 04:37:13;;;;;;;9.60;3.37;;;15.80;99.90;;;;;;5040973;28;20291;-60
2021/06/23 04:39:42;;;;;;;9.23;3.67;;;15.90;99.90;;;;;;5042900;28;20236;-62
2021/06/23 04:42:14;;;;;;;9.53;3.30;;;16.10;99.90;;;;;;5028456;28;20255;-63
2021/06/23 04:44:47;;;;;;;10.80;3.00;;;16.30;99.90;;;;;;5029044;28;20272;-63
2021/06/23 04:47:17;;;;;;;9.27;3.47;;;16.40;99.90;;;;;;5029838;28;20314;-63
2021/06/23 04:49:46;;;;;;;11.40;3.30;;;16.40;99.90;;;;;;5030576;28;20235;-63
2021/06/23 04:52:17;;;;;;;11.77;3.67;;;16.50;99.90;;;;;;5040898;28;20233;-63
2021/06/23 04:54:46;;;;;;;10.37;3.33;;;16.40;99.90;;;;;;5044035;28;20240;-63
2021/06/23 04:57:14;;;;;;;8.47;3.10;;;16.40;99.90;;;;;;5028553;28;20244;-63
2021/06/23 04:59:43;;;;;;;10.73;3.10;;;16.50;99.90;;;;;;5028199;28;20270;-63
2021/06/23 05:02:13;;;;;;;13.67;3.50;;;16.60;99.90;;;;;;5032981;28;20228;-60
2021/06/23 05:04:45;;;;;;;13.33;3.83;;;16.50;99.90;;;;;;5043820;28;20314;-63
2021/06/23 05:07:13;;;;;;;13.00;3.70;;;16.40;99.90;;;;;;5028654;28;20256;-62
2021/06/23 05:09:41;;;;;;;9.80;3.50;;;16.30;99.90;;;;;;5026634;28;20232;-62
2021/06/23 05:12:10;;;;;;;13.97;3.97;;;16.20;99.90;;;;;;5028015;28;20558;-63
2021/06/23 05:14:38;;;;;;;6.80;3.10;;;16.20;99.90;;;;;;5031477;28;20240;-62
2021/06/23 05:17:08;;;;;;;15.47;3.90;;;16.20;99.90;;;;;;5048099;28;20305;-63
2021/06/23 05:19:38;;;;;;;10.43;3.53;;;16.30;99.90;;;;;;5037199;28;20264;-63
2021/06/23 05:22:10;;;;;;;10.10;3.70;;;16.30;99.90;;;;;;5029197;28;20287;-63
2021/06/23 05:24:39;;;;;;;11.53;3.97;;;16.30;99.90;;;;;;5029282;28;20232;-62
2021/06/23 05:27:08;;;;;;;11.47;3.90;;;16.20;99.90;;;;;;5028278;28;20224;-63
2021/06/23 05:29:37;;;;;;;11.03;3.73;;;16.20;99.90;;;;;;5031284;28;20279;-63
2021/06/23 05:32:06;;;;;;;11.70;3.60;;;16.30;99.90;;;;;;5048563;28;20250;-63
2021/06/23 05:34:36;;;;;;;11.97;3.87;;;16.20;99.90;;;;;;5048909;28;20645;-63
2021/06/23 05:37:05;;;;;;;13.90;3.90;;;16.30;99.90;;;;;;5048395;28;20252;-63
2021/06/23 05:39:34;;;;;;;10.00;3.67;;;16.30;99.90;;;;;;5029119;28;20306;-61
2021/06/23 05:42:02;;;;;;;11.67;3.87;;;16.30;99.90;;;;;;5028103;28;20231;-64
2021/06/23 05:44:30;;;;;;;12.50;3.87;;;16.30;99.90;;;;;;5028629;28;20700;-63
2021/06/23 05:46:58;;;;;;;9.73;3.00;;;16.30;99.90;;;;;;5028483;28;20294;-63
2021/06/23 05:49:26;;;;;;;12.90;3.43;;;16.40;99.90;;;;;;5030155;28;20236;-61
2021/06/23 05:51:54;;;;;;;9.17;3.50;;;16.40;99.90;;;;;;5047961;28;20240;-62
2021/06/23 05:54:24;;;;;;;12.70;3.50;;;16.50;99.90;;;;;;5046060;28;20323;-61
2021/06/23 05:56:52;;;;;;;13.83;3.70;;;16.70;99.90;;;;;;5028633;28;20239;-62
2021/06/23 05:59:20;;;;;;;15.90;3.90;;;16.70;99.90;;;;;;5029513;28;20243;-61
2021/06/23 06:01:48;;;;;;;12.43;4.03;;;16.80;99.90;;;;;;5027874;28;20228;-63
2021/06/23 06:04:16;;;;;;;10.73;3.43;;;17.10;99.90;;;;;;5028372;28;20242;-63
2021/06/23 06:06:44;;;;;;;11.67;3.60;;;17.50;99.90;;;;;;5027037;28;20697;-62
2021/06/23 06:09:12;;;;;;;11.47;4.00;;;17.90;99.90;;;;;;5028203;28;20566;-62
2021/06/23 06:11:42;;;;;;;14.47;3.80;;;17.90;99.90;;;;;;5028534;28;20449;-63
2021/06/23 06:14:10;;;;;;;13.63;4.10;;;18.00;99.90;;;;;;5033181;28;20227;-64
2021/06/23 06:16:39;;;;;;;7.43;3.00;;;18.10;99.90;;;;;;5041013;28;20239;-64
2021/06/23 06:19:07;;;;;;;17.03;4.10;;;18.00;99.90;;;;;;5033980;28;20231;-62
2021/06/23 06:21:35;;;;;;;15.83;4.23;;;17.90;99.90;;;;;;5030328;28;20265;-63
2021/06/23 06:24:03;;;;;;;12.20;3.97;;;17.70;99.90;;;;;;5027441;28;20337;-60
2021/06/23 06:26:32;;;;;;;15.13;3.93;;;17.60;99.90;;;;;;5026991;28;20250;-64
2021/06/23 06:29:01;;;;;;;17.67;4.70;;;17.50;99.90;;;;;;5027708;28;20306;-62
2021/06/23 06:31:29;;;;;;;13.27;4.13;;;17.50;99.90;;;;;;5027240;28;20321;-64
2021/06/23 06:33:58;;;;;;;12.90;3.83;;;17.40;99.90;;;;;;5025973;28;20715;-63
2021/06/23 06:36:26;;;;;;;17.10;4.33;;;17.50;99.90;;;;;;5022789;28;20741;-64
2021/06/23 06:38:54;;;;;;;12.40;4.10;;;17.50;99.90;;;;;;5024014;28;20545;-63
2021/06/23 06:41:22;;;;;;;12.90;3.63;;;17.50;99.90;;;;;;5044630;28;20248;-62
2021/06/23 06:43:50;;;;;;;14.80;3.90;;;17.70;99.90;;;;;;5032940;28;20424;-64
2021/06/23 06:46:20;;;;;;;14.70;4.40;;;17.70;99.90;;;;;;5021939;28;20320;-63
2021/06/23 06:48:48;;;;;;;15.40;4.27;;;17.80;99.90;;;;;;5022639;28;20242;-63
2021/06/23 06:51:16;;;;;;;14.50;4.03;;;17.90;99.90;;;;;;5027198;28;20287;-63
2021/06/23 06:53:44;;;;;;;11.93;4.17;;;17.90;99.90;;;;;;5027063;28;20296;-63
2021/06/23 06:56:12;;;;;;;14.23;3.80;;;17.90;99.90;;;;;;5044672;28;20332;-63
2021/06/23 06:58:40;;;;;;;19.27;3.90;;;18.00;99.90;;;;;;5047138;28;20248;-63
2021/06/23 07:01:08;;;;;;;16.27;3.77;;;18.20;99.90;;;;;;5030031;28;20241;-63
2021/06/23 07:03:38;;;;;;;11.97;3.47;;;18.20;99.90;;;;;;5026779;28;20628;-63
2021/06/23 07:06:06;;;;;;;13.40;4.10;;;18.20;99.90;;;;;;5043641;28;20233;-64
2021/06/23 07:08:34;;;;;;;18.03;4.00;;;18.00;99.90;;;;;;5047164;28;20272;-62
2021/06/23 07:11:03;;;;;;;11.73;3.97;;;17.80;99.90;;;;;;5046167;28;20241;-63
2021/06/23 07:13:31;;;;;;;15.10;4.30;;;17.60;99.90;;;;;;5037034;28;20701;-63
2021/06/23 07:15:59;;;;;;;14.63;4.00;;;17.50;99.90;;;;;;5042081;28;20597;-64
2021/06/23 07:18:28;;;;;;;15.37;4.50;;;17.40;99.90;;;;;;5047205;28;20651;-63
2021/06/23 07:20:57;;;;;;;10.00;3.63;;;17.40;99.90;;;;;;5031260;28;20427;-64
2021/06/23 07:23:25;;;;;;;15.00;3.83;;;17.60;99.90;;;;;;5027234;28;20627;-63
2021/06/23 07:25:54;;;;;;;14.67;4.10;;;17.60;99.90;;;;;;5040961;28;20236;-63
2021/06/23 07:28:32;;;;;;;12.80;3.53;;;17.50;99.90;;;;;;5047173;28;20716;-63
2021/06/23 07:31:05;;;;;;;14.03;3.90;;;17.30;99.90;;;;;;5030687;28;20635;-63
2021/06/23 07:33:33;;;;;;;12.07;4.10;;;17.30;99.90;;;;;;5026552;28;20653;-63
2021/06/23 07:38:49;;;;;;;9.43;3.43;;;17.50;99.90;;;;;;5046993;28;20297;-62
2021/06/23 07:41:17;;;;;;;11.67;3.27;;;17.70;99.90;;;;;;5044419;28;20236;-62
2021/06/23 07:43:45;;;;;;;9.83;3.20;;;17.90;99.90;;;;;;5046273;28;20241;-63
2021/06/23 07:46:14;;;;;;;8.90;3.57;;;18.10;99.90;;;;;;5045045;28;20237;-63
2021/06/23 07:48:58;;;;;;;9.33;3.23;;;18.30;99.90;;;;;;5016251;28;20311;-63
2021/06/23 07:51:34;;;;;;;12.90;2.87;;;18.40;99.90;;;;;;5032252;28;20235;-64
2021/06/23 08:08:21;;;;;;;8.27;2.60;;;18.40;99.90;;;;;;5047188;28;20239;-63
2021/06/23 08:10:52;;;;;;;8.83;3.43;;;18.30;99.90;;;;;;5046197;28;20287;-63
2021/06/23 08:13:21;;;;;;;7.40;2.30;;;18.40;99.90;;;;;;5007994;28;21067;-64
2021/06/23 08:15:50;;;;;;;10.90;2.57;;;18.70;99.90;;;;;;5038871;28;20233;-64
2021/06/23 08:18:20;;;;;;;5.40;2.30;;;19.30;99.90;;;;;;5036341;28;20246;-63
2021/06/23 08:20:49;;;;;;;7.27;2.43;;;19.70;99.90;;;;;;5029477;28;20273;-64
2021/06/23 08:23:19;;;;;;;5.50;2.50;;;19.90;99.90;;;;;;5030345;28;20274;-64
2021/06/23 08:25:47;;;;;;;5.47;2.47;;;19.90;99.90;;;;;;5043842;28;20254;-63
2021/06/23 08:28:16;;;;;;;5.83;2.47;;;20.00;99.90;;;;;;5033160;28;20244;-63
2021/06/23 08:30:44;;;;;;;7.27;2.57;;;20.10;99.90;;;;;;5036854;28;20240;-64
2021/06/23 08:33:12;;;;;;;10.20;2.83;;;19.70;99.90;;;;;;5030085;28;20690;-63
2021/06/23 08:35:40;;;;;;;7.10;2.50;;;19.40;99.90;;;;;;5028884;28;20278;-63
2021/06/23 08:38:08;;;;;;;5.43;2.77;;;19.10;99.90;;;;;;5020964;28;20234;-64
2021/06/23 08:40:38;;;;;;;6.23;2.70;;;19.20;99.90;;;;;;5029532;28;20707;-63
2021/06/23 08:43:07;;;;;;;5.93;2.70;;;19.80;99.90;;;;;;5030194;28;20300;-63
2021/06/23 08:45:35;;;;;;;7.47;2.50;;;20.90;99.90;;;;;;5038572;28;20249;-63
2021/06/23 08:48:04;;;;;;;7.80;2.60;;;21.00;99.90;;;;;;5030258;28;20231;-63
2021/06/23 08:50:32;;;;;;;9.27;2.57;;;20.60;99.90;;;;;;5040598;28;20342;-63
2021/06/23 08:53:01;;;;;;;7.30;2.40;;;20.30;99.90;;;;;;5048776;28;20226;-64
2021/06/23 08:55:29;;;;;;;4.97;2.40;;;20.10;99.90;;;;;;5040380;28;20525;-63
2021/06/23 08:58:00;;;;;;;5.70;2.13;;;20.00;99.90;;;;;;5042625;28;20251;-63
2021/06/23 09:00:29;;;;;;;5.33;2.10;;;19.80;99.90;;;;;;5029310;28;20247;-63
2021/06/23 09:03:02;;;;;;;5.23;2.00;;;19.80;99.90;;;;;;5029909;28;20296;-63
2021/06/23 09:05:46;;;;;;;4.53;1.77;;;20.30;99.90;;;;;;5027313;28;20293;-64
2021/06/23 09:08:15;;;;;;;7.97;2.63;;;21.30;99.90;;;;;;5025936;28;20281;-63
2021/06/23 09:10:43;;;;;;;3.90;2.07;;;21.20;99.90;;;;;;5036012;28;20238;-63
2021/06/23 09:13:17;;;;;;;4.83;2.23;;;20.80;99.90;;;;;;5027028;28;20259;-64
2021/06/23 09:15:52;;;;;;;5.90;2.00;;;20.60;99.90;;;;;;5039627;28;20434;-63
2021/06/23 09:18:22;;;;;;;4.53;1.73;;;20.40;99.90;;;;;;5045824;28;20320;-62
2021/06/23 09:20:52;;;;;;;6.03;2.17;;;20.10;99.90;;;;;;5044863;28;20242;-63
2021/06/23 09:23:37;;;;;;;3.63;1.80;;;20.10;99.90;;;;;;5034997;28;20301;-63
2021/06/23 09:26:13;;;;;;;3.93;1.90;;;20.70;99.90;;;;;;5025694;28;20240;-63
2021/06/23 09:28:43;;;;;;;4.43;1.60;;;22.10;99.90;;;;;;5026111;28;20238;-63
2021/06/23 09:31:11;;;;;;;4.83;2.10;;;23.10;99.90;;;;;;5025917;28;20342;-62
2021/06/23 09:33:40;;;;;;;3.97;1.97;;;23.50;99.90;;;;;;5025818;28;20273;-63
2021/06/23 09:36:10;;;;;;;4.50;2.00;;;22.90;99.90;;;;;;5025121;28;20331;-62
2021/06/23 09:38:59;;;;;;;5.27;1.80;;;22.10;99.90;;;;;;5023141;28;20306;-63
2021/06/23 09:41:29;;;;;;;4.73;2.23;;;22.10;99.90;;;;;;5027450;28;20650;-61
2021/06/23 09:44:03;;;;;;;5.63;2.10;;;22.00;99.90;;;;;;5024078;28;20609;-64
2021/06/23 09:46:34;;;;;;;3.03;1.90;;;21.70;99.90;;;;;;5027297;28;20635;-63
2021/06/23 09:49:10;;;;;;;3.53;1.60;;;21.80;99.90;;;;;;5023433;28;20767;-63
2021/06/23 09:51:43;;;;;;;7.63;2.47;;;21.90;99.90;;;;;;5024433;28;20259;-63
2021/06/23 09:54:12;;;;;;;4.70;1.80;;;22.00;99.90;;;;;;5025853;28;20247;-63
2021/06/23 09:56:56;;;;;;;4.27;1.77;;;22.20;99.90;;;;;;5022547;28;20262;-63
2021/06/23 09:59:34;;;;;;;3.77;1.77;;;22.20;99.90;;;;;;5024579;28;20748;-62
2021/06/23 10:02:03;;;;;;;7.97;2.10;;;22.30;99.90;;;;;;5019867;28;20263;-63
2021/06/23 10:04:33;;;;;;;3.60;1.63;;;22.80;99.90;;;;;;5017151;28;20243;-63
2021/06/23 10:07:04;;;;;;;3.97;1.50;;;24.00;99.90;;;;;;5022410;28;20673;-63
2021/06/23 10:09:34;;;;;;;3.87;1.60;;;25.10;99.90;;;;;;5016453;28;20276;-62
2021/06/23 10:12:05;;;;;;;3.13;1.67;;;24.90;99.90;;;;;;5008595;28;20248;-60
2021/06/23 10:14:41;;;;;;;5.13;2.00;;;24.50;99.90;;;;;;5011204;28;20302;-63
2021/06/23 10:17:10;;;;;;;5.43;1.90;;;23.70;99.90;;;;;;5012039;28;20235;-63
2021/06/23 10:19:41;;;;;;;5.60;1.93;;;22.80;99.90;;;;;;5017920;28;20244;-62
2021/06/23 10:22:12;;;;;;;5.60;1.90;;;22.30;99.90;;;;;;5026257;28;20339;-62
2021/06/23 10:24:56;;;;;;;4.80;1.70;;;22.20;99.90;;;;;;5010918;28;20700;-63
2021/06/23 10:27:25;;;;;;;4.07;1.60;;;22.20;99.90;;;;;;5021419;28;20244;-62
2021/06/23 10:29:58;;;;;;;3.23;1.93;;;22.50;99.90;;;;;;5011491;28;20305;-62
2021/06/23 10:32:28;;;;;;;3.63;1.50;;;23.40;99.90;;;;;;5005958;28;20244;-62
2021/06/23 10:34:56;;;;;;;4.23;2.10;;;23.30;99.90;;;;;;5027525;28;20254;-63
2021/06/23 10:37:25;;;;;;;2.13;1.30;;;22.70;99.90;;;;;;5030826;28;21371;-62
2021/06/23 10:39:55;;;;;;;5.50;2.17;;;22.80;99.90;;;;;;5031135;28;20588;-61
2021/06/23 10:42:25;;;;;;;3.90;1.43;;;23.70;99.90;;;;;;5008495;28;20796;-63
2021/06/23 10:44:56;;;;;;;3.83;1.67;;;24.80;99.90;;;;;;5011842;28;20244;-63
2021/06/23 10:47:33;;;;;;;5.23;1.60;;;24.50;99.90;;;;;;5015013;28;20604;-62
2021/06/23 10:50:02;;;;;;;4.67;1.53;;;24.60;99.90;;;;;;5021831;28;20263;-63
2021/06/23 10:52:35;;;;;;;6.63;1.70;;;25.00;99.90;;;;;;5022847;28;20237;-62
2021/06/23 10:55:09;;;;;;;3.90;1.67;;;25.00;99.90;;;;;;5031852;28;20276;-63
2021/06/23 10:57:43;;;;;;;3.73;1.60;;;24.60;99.90;;;;;;5044648;28;20239;-62
2021/06/23 11:00:32;;;;;;;4.67;1.70;;;24.50;99.90;;;;;;5057592;28;20236;-62
2021/06/23 11:03:05;;;;;;;3.40;1.53;;;24.40;99.90;;;;;;5023817;28;20237;-61
2021/06/23 11:05:41;;;;;;;3.23;1.57;;;24.40;99.90;;;;;;5024285;28;20662;-62
2021/06/23 11:08:31;;;;;;;3.57;1.70;;;25.30;99.90;;;;;;5024422;28;20659;-63
2021/06/23 11:11:02;;;;;;;4.20;1.67;;;25.20;99.90;;;;;;5022923;28;20308;-62
2021/06/23 11:13:32;;;;;;;4.47;1.80;;;24.90;99.90;;;;;;5024364;28;20265;-62
2021/06/23 11:16:02;;;;;;;4.97;1.70;;;24.50;99.90;;;;;;5024211;28;20247;-62
2021/06/23 11:18:37;;;;;;;3.97;2.00;;;24.60;99.90;;;;;;5024565;28;20618;-61
2021/06/23 11:21:17;;;;;;;6.80;1.90;;;24.50;99.90;;;;;;5026355;28;20241;-62
2021/06/23 11:23:49;;;;;;;3.53;2.00;;;24.20;99.90;;;;;;5024346;28;20237;-62
2021/06/23 11:26:47;;;;;;;6.77;2.10;;;23.60;99.90;;;;;;5041731;28;20248;-62
2021/06/23 11:29:29;;;;;;;4.47;1.53;;;23.40;99.90;;;;;;5043847;28;20282;-62
2021/06/23 11:32:05;;;;;;;5.20;1.77;;;23.90;99.90;;;;;;5024242;28;20263;-62
2021/06/23 11:34:56;;;;;;;5.13;1.90;;;24.10;99.90;;;;;;5017991;28;20243;-62
2021/06/23 11:37:35;;;;;;;5.13;1.60;;;23.90;99.90;;;;;;5034565;28;20302;-63
2021/06/23 11:40:20;;;;;;;4.63;2.00;;;24.00;99.90;;;;;;5024815;28;20235;-62
2021/06/23 11:42:52;;;;;;;5.47;2.20;;;23.50;99.90;;;;;;5022437;28;20319;-62
2021/06/23 11:45:22;;;;;;;7.37;2.40;;;23.10;99.90;;;;;;5022613;28;20315;-62
2021/06/23 11:47:52;;;;;;;5.73;2.23;;;23.10;99.90;;;;;;5023829;28;20232;-62
2021/06/23 11:50:21;;;;;;;7.10;2.17;;;23.30;99.90;;;;;;5026768;28;20255;-62
2021/06/23 11:52:51;;;;;;;4.93;1.60;;;23.50;99.90;;;;;;5028152;28;20237;-63
2021/06/23 11:55:25;;;;;;;4.13;1.90;;;23.50;99.90;;;;;;5027099;28;20255;-62
2021/06/23 11:57:55;;;;;;;5.03;1.80;;;23.40;99.90;;;;;;5027421;28;20250;-62
2021/06/23 12:00:25;;;;;;;4.40;1.80;;;23.40;99.90;;;;;;5035855;28;20247;-63
2021/06/23 12:02:54;;;;;;;7.30;2.20;;;23.10;99.90;;;;;;5026486;28;20240;-63
2021/06/23 12:05:23;;;;;;;5.57;2.20;;;22.80;99.90;;;;;;5024605;28;20331;-63
2021/06/23 12:07:52;;;;;;;3.63;1.97;;;22.50;99.90;;;;;;5025195;28;20330;-62
2021/06/23 12:10:21;;;;;;;5.17;2.10;;;22.40;99.90;;;;;;5027744;28;20243;-63
2021/06/23 12:12:50;;;;;;;4.50;2.20;;;22.30;99.90;;;;;;5026300;28;20319;-62
2021/06/23 12:15:20;;;;;;;3.90;1.67;;;22.30;99.90;;;;;;5026378;28;20323;-62
2021/06/23 12:17:49;;;;;;;3.53;2.10;;;22.20;99.90;;;;;;5026339;28;20285;-63
2021/06/23 12:20:20;;;;;;;4.37;1.70;;;22.10;99.90;;;;;;5036233;28;20777;-62
2021/06/23 12:22:55;;;;;;;5.33;1.80;;;22.10;99.90;;;;;;5048106;28;20271;-61
2021/06/23 12:25:25;;;;;;;4.23;1.80;;;21.90;99.90;;;;;;5042818;28;20286;-63
2021/06/23 12:27:54;;;;;;;6.43;1.90;;;21.70;99.90;;;;;;5027123;28;20236;-64
2021/06/23 12:30:26;;;;;;;5.80;2.10;;;21.60;99.90;;;;;;5037100;28;20301;-62
2021/06/23 12:32:54;;;;;;;4.67;2.20;;;21.50;99.90;;;;;;5047744;28;20659;-63
2021/06/23 12:35:24;;;;;;;4.50;1.97;;;21.50;99.90;;;;;;5043662;28;20734;-62
2021/06/23 12:37:53;;;;;;;8.40;2.27;;;21.50;99.90;;;;;;5040911;28;20633;-63
2021/06/23 12:40:21;;;;;;;5.10;1.93;;;21.50;99.90;;;;;;5026905;28;20290;-63
2021/06/23 12:42:52;;;;;;;6.13;2.13;;;21.50;99.90;;;;;;5027425;28;20679;-63
2021/06/23 12:45:20;;;;;;;7.07;2.40;;;21.60;99.90;;;;;;5027500;28;20248;-64
2021/06/23 12:47:48;;;;;;;4.33;2.23;;;21.70;99.90;;;;;;5026851;28;20243;-64
2021/06/23 12:50:18;;;;;;;3.67;2.00;;;21.80;99.90;;;;;;5026578;28;20286;-63
2021/06/23 12:52:49;;;;;;;5.60;2.10;;;22.10;99.90;;;;;;5027150;28;20246;-63
2021/06/23 12:55:18;;;;;;;3.90;1.83;;;22.10;99.90;;;;;;5026381;28;20265;-62
2021/06/23 12:57:46;;;;;;;3.57;1.60;;;22.20;99.90;;;;;;5026996;28;20287;-62
2021/06/23 13:00:16;;;;;;;7.23;2.07;;;22.30;99.90;;;;;;5034906;28;20343;-63
2021/06/23 13:02:45;;;;;;;5.33;2.23;;;22.20;99.90;;;;;;5046667;28;20363;-63
2021/06/23 13:05:14;;;;;;;7.30;2.20;;;22.20;99.90;;;;;;5038207;28;20248;-63
2021/06/23 13:07:44;;;;;;;4.53;1.90;;;22.30;99.90;;;;;;5026543;28;20252;-63
2021/06/23 13:10:15;;;;;;;3.33;1.80;;;22.20;99.90;;;;;;5026363;28;20275;-62
2021/06/23 13:12:44;;;;;;;5.80;2.50;;;22.40;99.90;;;;;;5026983;28;20335;-64
2021/06/23 13:15:15;;;;;;;7.77;2.77;;;22.30;99.90;;;;;;5050486;28;20707;-63
2021/06/23 13:17:44;;;;;;;4.70;2.10;;;22.20;99.90;;;;;;5046651;28;20796;-62
2021/06/23 13:20:21;;;;;;;4.47;2.13;;;22.10;99.90;;;;;;5042995;28;20322;-63
2021/06/23 13:22:49;;;;;;;5.87;2.40;;;22.00;99.90;;;;;;5046603;28;20294;-62